NO-0032 weather

Bøverbru Airfield
Oppland, Norway

Public forecast

Using degrees Celsius for public forecast. Weather courtesy of forecast.io.

METAR (pilot weather report)

Closest report is Oslo Gardermoen Airport, 29.4 nm (54.5 km) SSE. Retrieved 2019/05/22 06:20 UTC (17 minutes ago):

ENGM 220620Z 10007KT 030V140 9999 FEW020 SCT065 16/13 Q1009 NOSIG

TAF (pilot weather forecast)

Closest forecast is Oslo Gardermoen Airport, 29.4 nm (54.5 km) SSE. Retrieved 2019/05/22 06:59 UTC (0 seconds ago):

TAF ENGM 220500Z 2206/2306 04008KT 9999 -SHRA FEW030TCU BKN040 BECMG 2208/2211 15010KT TEMPO 2214/2219 SHRA BKN012 FEW025CB PROB40 2214/2219 TSRA PROB30 2223/2304 BKN012